createdAt,value
2022-08-26T00:01:31.957Z,5.90
2022-08-26T00:03:59.013Z,6.30
2022-08-26T00:06:26.249Z,6.87
2022-08-26T00:08:53.957Z,6.50
2022-08-26T00:11:26.369Z,6.80
2022-08-26T00:13:57.617Z,7.10
2022-08-26T00:16:26.771Z,6.47
2022-08-26T00:18:54.133Z,7.03
2022-08-26T00:21:20.634Z,6.10
2022-08-26T00:23:47.809Z,6.87
2022-08-26T00:26:14.632Z,6.80
2022-08-26T00:28:41.477Z,7.40
2022-08-26T00:31:11.071Z,6.57
2022-08-26T00:33:38.820Z,6.80
2022-08-26T00:36:06.517Z,7.50
2022-08-26T00:38:33.323Z,6.60
2022-08-26T00:41:00.377Z,6.60
2022-08-26T00:43:26.980Z,7.73
2022-08-26T00:46:04.770Z,7.40
2022-08-26T00:48:33.817Z,6.43
2022-08-26T00:51:11.780Z,7.63
2022-08-26T00:53:43.356Z,6.93
2022-08-26T00:56:17.715Z,6.63
2022-08-26T00:58:45.502Z,7.60
2022-08-26T01:01:12.163Z,7.30
2022-08-26T01:03:40.503Z,7.93
2022-08-26T01:06:11.479Z,7.33
2022-08-26T01:08:40.379Z,7.50
2022-08-26T01:11:08.074Z,7.40
2022-08-26T01:13:36.894Z,7.70
2022-08-26T01:16:06.175Z,7.67
2022-08-26T01:18:33.528Z,8.13
2022-08-26T01:21:06.257Z,7.20
2022-08-26T01:23:40.960Z,7.73
2022-08-26T01:26:20.054Z,7.53
2022-08-26T01:28:51.594Z,7.80
2022-08-26T01:31:22.250Z,7.03
2022-08-26T01:34:21.109Z,7.40
2022-08-26T01:36:51.661Z,7.83
2022-08-26T01:39:18.603Z,7.20
2022-08-26T01:41:46.344Z,7.60
2022-08-26T01:44:21.991Z,7.53
2022-08-26T01:46:52.215Z,8.50
2022-08-26T01:49:22.392Z,8.37
2022-08-26T01:51:51.407Z,8.17
2022-08-26T01:54:20.481Z,8.13
2022-08-26T01:56:49.731Z,8.00
2022-08-26T01:59:18.480Z,7.80
2022-08-26T02:01:47.672Z,6.90
2022-08-26T02:04:46.562Z,7.70
2022-08-26T02:07:14.200Z,8.50
2022-08-26T02:09:41.760Z,7.70
2022-08-26T02:12:10.617Z,7.90
2022-08-26T02:14:43.827Z,8.50
2022-08-26T02:17:11.295Z,7.90
2022-08-26T02:19:41.679Z,8.13
2022-08-26T02:22:14.925Z,8.30
2022-08-26T02:24:59.292Z,8.60
2022-08-26T02:27:32.820Z,8.10
2022-08-26T02:30:14.120Z,8.27
2022-08-26T02:32:44.045Z,8.20
2022-08-26T02:35:12.861Z,8.20
2022-08-26T02:37:39.503Z,8.70
2022-08-26T02:40:10.687Z,8.50
2022-08-26T02:42:37.666Z,9.20
2022-08-26T02:45:05.433Z,9.10
2022-08-26T02:47:34.371Z,9.63
2022-08-26T02:50:01.781Z,11.10
2022-08-26T02:52:28.311Z,10.37
2022-08-26T02:54:54.927Z,9.77
2022-08-26T02:57:22.206Z,13.57
2022-08-26T02:59:49.338Z,13.10
2022-08-26T03:02:16.768Z,21.63
2022-08-26T03:04:57.377Z,17.20
2022-08-26T03:07:27.308Z,19.13
2022-08-26T03:09:53.855Z,16.50
2022-08-26T03:12:20.400Z,22.60
2022-08-26T03:14:47.934Z,34.87
2022-08-26T03:17:14.479Z,31.90
2022-08-26T03:19:40.928Z,34.77
2022-08-26T03:22:07.797Z,32.00
2022-08-26T03:24:34.407Z,33.23
2022-08-26T03:27:01.960Z,32.53
2022-08-26T03:29:51.763Z,30.43
2022-08-26T03:32:20.661Z,33.20
2022-08-26T03:34:47.093Z,33.60
2022-08-26T03:37:13.524Z,32.03
2022-08-26T03:39:40.057Z,26.60
2022-08-26T03:42:07.314Z,29.07
2022-08-26T03:44:34.061Z,30.43
2022-08-26T03:47:00.591Z,37.70
2022-08-26T03:49:28.831Z,35.80
2022-08-26T03:51:55.493Z,37.60
2022-08-26T03:54:21.926Z,33.90
2022-08-26T03:56:48.355Z,37.83
2022-08-26T03:59:14.834Z,36.97
2022-08-26T04:01:42.075Z,36.40
2022-08-26T04:04:08.616Z,39.00
2022-08-26T04:06:38.425Z,38.70
2022-08-26T04:09:08.511Z,37.63
2022-08-26T04:11:38.245Z,34.73
2022-08-26T04:14:09.512Z,36.40
2022-08-26T04:16:36.523Z,37.03
2022-08-26T04:19:03.306Z,35.10
2022-08-26T04:21:29.801Z,39.43
2022-08-26T04:23:56.273Z,41.50
2022-08-26T04:26:25.354Z,42.30
2022-08-26T04:28:55.285Z,39.10
2022-08-26T04:31:22.249Z,41.83
2022-08-26T04:33:50.206Z,38.90
2022-08-26T04:36:17.653Z,38.00
2022-08-26T04:38:47.293Z,38.30
2022-08-26T04:41:15.678Z,41.17
2022-08-26T04:43:45.465Z,38.40
2022-08-26T04:46:13.920Z,40.50
2022-08-26T04:48:41.108Z,40.13
2022-08-26T04:51:09.694Z,39.27
2022-08-26T04:53:37.601Z,38.67
2022-08-26T04:56:04.880Z,36.20
2022-08-26T04:58:31.848Z,41.60
2022-08-26T05:00:58.533Z,40.80
2022-08-26T05:03:27.353Z,38.97
2022-08-26T05:05:57.968Z,39.63
2022-08-26T05:08:24.480Z,37.93
2022-08-26T05:10:57.113Z,37.00
2022-08-26T05:13:28.914Z,37.87
2022-08-26T05:15:55.751Z,37.60
2022-08-26T05:18:29.945Z,38.10
2022-08-26T05:20:57.390Z,37.47
2022-08-26T05:23:24.648Z,37.83
2022-08-26T05:25:58.364Z,36.90
2022-08-26T05:28:26.938Z,38.53
2022-08-26T05:30:55.486Z,40.40
2022-08-26T05:33:22.406Z,42.40
2022-08-26T05:35:49.171Z,39.63
2022-08-26T05:38:18.677Z,39.70
2022-08-26T05:40:49.053Z,42.00
2022-08-26T05:43:20.164Z,41.07
2022-08-26T05:45:50.273Z,44.30
2022-08-26T05:48:22.777Z,45.00
2022-08-26T05:50:54.197Z,45.17
2022-08-26T05:53:22.192Z,49.83
2022-08-26T05:55:53.131Z,49.23
2022-08-26T05:58:21.873Z,43.73
2022-08-26T06:01:19.535Z,48.30
2022-08-26T06:03:51.696Z,49.87
2022-08-26T06:06:27.603Z,47.43
2022-08-26T06:08:57.883Z,46.17
2022-08-26T06:11:25.456Z,45.77
2022-08-26T06:13:53.574Z,47.73
2022-08-26T06:16:23.310Z,48.43
2022-08-26T06:18:52.628Z,49.67
2022-08-26T06:21:25.408Z,49.77
2022-08-26T06:24:13.176Z,45.87
2022-08-26T06:26:42.666Z,48.30
2022-08-26T06:29:09.762Z,49.10
2022-08-26T06:31:37.156Z,49.30
2022-08-26T06:34:10.592Z,56.00
2022-08-26T06:36:39.341Z,54.20
2022-08-26T06:39:10.062Z,52.90
2022-08-26T06:41:43.172Z,47.97
2022-08-26T06:44:09.911Z,52.90
2022-08-26T06:46:36.526Z,46.27
2022-08-26T06:49:03.534Z,48.53
2022-08-26T06:51:32.674Z,49.57
2022-08-26T06:54:02.406Z,47.83
2022-08-26T06:56:35.270Z,46.40
2022-08-26T06:59:02.615Z,46.67
2022-08-26T07:01:31.907Z,43.87
2022-08-26T07:04:00.228Z,44.63
2022-08-26T07:06:28.200Z,45.17
2022-08-26T07:09:03.366Z,40.47
2022-08-26T07:11:31.233Z,45.00
2022-08-26T07:13:58.960Z,45.00
2022-08-26T07:16:28.807Z,41.53
2022-08-26T07:18:56.869Z,44.10
2022-08-26T07:21:24.547Z,45.30
2022-08-26T07:23:54.626Z,45.57
2022-08-26T07:26:27.033Z,47.60
2022-08-26T07:28:56.155Z,45.07
2022-08-26T07:31:25.268Z,44.07
2022-08-26T07:33:52.767Z,47.23
2022-08-26T07:36:20.763Z,44.77
2022-08-26T07:38:48.186Z,45.80
2022-08-26T07:41:17.398Z,45.73
2022-08-26T07:43:44.390Z,47.67
2022-08-26T07:46:18.316Z,46.80
2022-08-26T07:48:48.779Z,44.23
2022-08-26T07:51:20.743Z,45.80
2022-08-26T07:53:48.124Z,44.13
2022-08-26T07:56:19.576Z,46.00
2022-08-26T07:58:50.523Z,46.00
2022-08-26T08:01:18.359Z,46.70
2022-08-26T08:03:45.253Z,48.23
2022-08-26T08:06:11.896Z,50.90
2022-08-26T08:08:40.728Z,47.40
2022-08-26T08:11:07.463Z,47.03
2022-08-26T08:13:38.672Z,48.90
2022-08-26T08:16:06.094Z,46.27
2022-08-26T08:18:32.555Z,45.93
2022-08-26T08:21:20.996Z,46.20
2022-08-26T08:23:48.214Z,48.40
2022-08-26T08:26:15.359Z,45.90
2022-08-26T08:28:43.475Z,44.53
2022-08-26T08:31:54.519Z,44.90
2022-08-26T08:34:12.277Z,47.17
2022-08-26T08:36:38.739Z,46.07
2022-08-26T08:39:06.454Z,43.27
2022-08-26T08:41:38.868Z,43.53
2022-08-26T08:44:13.077Z,47.87
2022-08-26T08:46:42.393Z,46.07
2022-08-26T08:49:10.307Z,44.93
2022-08-26T08:51:54.232Z,46.17
2022-08-26T08:54:22.937Z,47.57
2022-08-26T08:56:55.312Z,44.63
2022-08-26T08:59:27.533Z,45.80
2022-08-26T09:02:20.887Z,45.60
2022-08-26T09:05:07.857Z,42.47
2022-08-26T09:07:38.821Z,42.23
2022-08-26T09:10:26.283Z,43.07
2022-08-26T09:12:52.822Z,40.80
2022-08-26T09:15:50.523Z,36.13
2022-08-26T09:18:29.145Z,34.60
2022-08-26T09:20:57.147Z,37.33
2022-08-26T09:23:23.652Z,34.30
2022-08-26T09:25:59.897Z,36.80
2022-08-26T09:28:30.306Z,35.50
2022-08-26T09:31:11.448Z,33.80
2022-08-26T09:33:40.071Z,34.10
2022-08-26T09:36:58.776Z,37.97
2022-08-26T09:39:27.987Z,39.03
2022-08-26T09:42:14.331Z,34.47
2022-08-26T09:44:58.144Z,37.20
2022-08-26T09:47:31.842Z,35.70
2022-08-26T09:50:14.370Z,34.20
2022-08-26T09:52:42.589Z,35.20
2022-08-26T09:55:09.315Z,32.70
2022-08-26T09:57:45.653Z,31.40
2022-08-26T10:00:27.151Z,31.00
2022-08-26T10:02:57.844Z,29.50
2022-08-26T10:06:01.455Z,28.13
2022-08-26T10:08:38.683Z,28.50
2022-08-26T10:11:38.339Z,33.67
2022-08-26T10:14:53.421Z,34.57
2022-08-26T10:17:30.876Z,34.43
2022-08-26T10:20:05.496Z,35.47
2022-08-26T10:23:08.451Z,35.13
2022-08-26T10:25:47.224Z,32.67
2022-08-26T10:28:31.774Z,30.13
2022-08-26T10:31:04.700Z,32.07
2022-08-26T10:33:31.313Z,31.27
2022-08-26T10:36:01.801Z,32.77
2022-08-26T10:38:40.216Z,30.17
2022-08-26T10:41:16.970Z,27.80
2022-08-26T10:43:58.073Z,27.80
2022-08-26T10:46:32.293Z,26.83
2022-08-26T10:49:06.551Z,22.30
2022-08-26T10:51:38.533Z,23.43
2022-08-26T10:54:09.217Z,23.10
2022-08-26T10:56:49.854Z,23.67
2022-08-26T10:59:39.912Z,25.17
2022-08-26T11:02:28.737Z,28.20
2022-08-26T11:04:58.824Z,33.70
2022-08-26T11:07:43.592Z,30.47
2022-08-26T11:10:17.159Z,32.87
2022-08-26T11:12:45.301Z,35.50
2022-08-26T11:15:24.575Z,38.70
2022-08-26T11:17:51.340Z,38.80
2022-08-26T11:20:29.866Z,40.47
2022-08-26T11:23:16.509Z,42.40
2022-08-26T11:25:58.913Z,43.87
2022-08-26T11:28:44.661Z,42.30
2022-08-26T11:31:33.771Z,40.87
2022-08-26T11:34:07.107Z,38.93
2022-08-26T11:36:47.747Z,39.20
2022-08-26T11:39:19.554Z,32.77
2022-08-26T11:41:49.364Z,30.87
2022-08-26T11:44:24.167Z,28.87
2022-08-26T11:47:11.543Z,25.83
2022-08-26T11:49:39.120Z,22.33
2022-08-26T11:52:20.735Z,20.67
2022-08-26T11:55:01.313Z,19.80
2022-08-26T11:57:28.739Z,18.77
2022-08-26T11:59:56.503Z,19.67
2022-08-26T12:02:23.341Z,18.50
2022-08-26T12:04:51.837Z,18.17
2022-08-26T12:07:24.412Z,17.87
2022-08-26T12:09:57.543Z,21.27
2022-08-26T12:12:36.161Z,24.87
2022-08-26T12:15:22.660Z,28.93
2022-08-26T12:17:54.373Z,27.77
2022-08-26T12:20:54.374Z,27.67
2022-08-26T12:23:31.039Z,30.37
2022-08-26T12:26:10.471Z,26.60
2022-08-26T12:28:45.801Z,26.13
2022-08-26T12:31:20.929Z,26.23
2022-08-26T12:33:49.485Z,25.40
2022-08-26T12:36:31.489Z,25.43
2022-08-26T12:39:07.199Z,28.70
2022-08-26T12:41:42.138Z,30.10
2022-08-26T12:44:09.039Z,29.30
2022-08-26T12:46:35.506Z,28.00
2022-08-26T12:49:02.977Z,31.40
2022-08-26T12:51:32.372Z,31.23
2022-08-26T12:53:59.634Z,30.93
2022-08-26T12:56:38.750Z,29.97
2022-08-26T12:59:24.981Z,27.90
2022-08-26T13:01:52.662Z,20.53
2022-08-26T13:04:39.840Z,19.50
2022-08-26T13:07:18.433Z,16.13
2022-08-26T13:09:44.838Z,16.60
2022-08-26T13:12:14.198Z,17.83
2022-08-26T13:14:40.803Z,13.83
2022-08-26T13:17:07.372Z,13.27
2022-08-26T13:19:33.776Z,12.93
2022-08-26T13:22:00.683Z,11.80
2022-08-26T13:24:36.909Z,11.43
2022-08-26T13:27:07.429Z,11.83
2022-08-26T13:29:34.233Z,8.60
2022-08-26T13:32:01.546Z,8.67
2022-08-26T13:34:29.722Z,9.10
2022-08-26T13:36:56.528Z,8.90
2022-08-26T13:39:23.900Z,8.27
2022-08-26T13:41:51.429Z,9.50
2022-08-26T13:44:18.937Z,9.60
2022-08-26T13:49:16.992Z,11.43
2022-08-26T13:51:43.444Z,12.67
2022-08-26T13:54:09.932Z,11.07
2022-08-26T13:56:36.664Z,9.40
2022-08-26T13:59:03.988Z,11.60
2022-08-26T14:01:31.714Z,9.80
2022-08-26T14:03:58.739Z,10.07
2022-08-26T14:06:25.552Z,9.60
2022-08-26T14:08:52.061Z,9.47
2022-08-26T14:11:18.897Z,10.03
2022-08-26T14:13:45.438Z,9.47
2022-08-26T14:16:26.775Z,9.10
2022-08-26T14:18:53.953Z,8.90
2022-08-26T14:21:21.260Z,7.60
2022-08-26T14:23:47.885Z,6.97
2022-08-26T14:26:21.433Z,8.80
2022-08-26T14:28:55.208Z,8.33
2022-08-26T14:31:24.424Z,7.43
2022-08-26T14:33:50.956Z,6.80
2022-08-26T14:36:29.440Z,7.13
2022-08-26T14:38:58.294Z,7.67
2022-08-26T14:41:25.392Z,8.07
2022-08-26T14:44:00.023Z,8.30
2022-08-26T14:46:30.279Z,7.80
2022-08-26T14:49:02.128Z,7.10
2022-08-26T14:51:30.112Z,7.57
2022-08-26T14:54:14.630Z,7.10
2022-08-26T14:56:53.975Z,8.23
2022-08-26T14:59:31.966Z,8.43
2022-08-26T15:01:59.165Z,8.47
2022-08-26T15:04:26.070Z,9.47
2022-08-26T15:06:57.300Z,8.33
2022-08-26T15:09:23.825Z,7.43
2022-08-26T15:11:50.767Z,7.70
2022-08-26T15:14:19.499Z,8.37
2022-08-26T15:16:55.790Z,8.43
2022-08-26T15:19:24.178Z,8.40
2022-08-26T15:21:51.434Z,8.30
2022-08-26T15:24:21.201Z,7.87
2022-08-26T15:26:48.666Z,7.70
2022-08-26T15:29:15.224Z,6.57
2022-08-26T15:31:42.092Z,5.93
2022-08-26T15:34:14.624Z,6.43
2022-08-26T15:36:44.790Z,6.97
2022-08-26T15:39:11.882Z,6.03
2022-08-26T15:41:38.380Z,6.67
2022-08-26T15:44:06.762Z,7.40
2022-08-26T15:46:34.355Z,8.60
2022-08-26T15:49:02.499Z,8.17
2022-08-26T15:51:31.910Z,7.33
2022-08-26T15:53:59.240Z,6.90
2022-08-26T15:56:27.767Z,6.70
2022-08-26T15:58:56.063Z,7.13
2022-08-26T16:01:27.456Z,8.57
2022-08-26T16:03:55.036Z,8.87
2022-08-26T16:06:24.818Z,8.23
2022-08-26T16:08:51.692Z,8.30
2022-08-26T16:11:21.331Z,8.83
2022-08-26T16:13:47.901Z,7.80
2022-08-26T16:16:15.084Z,7.30
2022-08-26T16:18:42.247Z,7.00
2022-08-26T16:21:13.579Z,6.67
2022-08-26T16:23:40.518Z,6.30
2022-08-26T16:26:14.249Z,6.37
2022-08-26T16:28:40.706Z,7.37
2022-08-26T16:31:07.285Z,6.27
2022-08-26T16:33:33.829Z,6.13
2022-08-26T16:36:00.303Z,6.00
2022-08-26T16:38:26.770Z,4.70
2022-08-26T16:40:53.243Z,5.60
2022-08-26T16:43:19.691Z,4.90
2022-08-26T16:45:46.190Z,4.80
2022-08-26T16:48:12.636Z,4.97
2022-08-26T16:50:40.703Z,5.10
2022-08-26T16:53:08.031Z,5.07
2022-08-26T16:55:35.841Z,4.57
2022-08-26T16:58:03.051Z,4.07
2022-08-26T17:00:32.279Z,4.73
2022-08-26T17:03:00.754Z,4.40
2022-08-26T17:05:28.461Z,4.77
2022-08-26T17:07:56.712Z,4.60
2022-08-26T17:10:24.752Z,4.23
2022-08-26T17:12:51.502Z,4.57
2022-08-26T17:15:18.463Z,4.07
2022-08-26T17:17:45.023Z,4.60
2022-08-26T17:20:15.588Z,4.77
2022-08-26T17:22:45.717Z,3.80
2022-08-26T17:25:24.413Z,3.70
2022-08-26T17:27:50.914Z,3.40
2022-08-26T17:30:17.966Z,3.40
2022-08-26T17:32:44.983Z,2.83
2022-08-26T17:35:13.261Z,3.37
2022-08-26T17:37:40.055Z,2.57
2022-08-26T17:40:11.894Z,3.10
2022-08-26T17:42:39.049Z,3.40
2022-08-26T17:45:06.510Z,3.10
2022-08-26T17:47:33.926Z,3.80
2022-08-26T17:50:01.323Z,4.07
2022-08-26T17:52:28.697Z,3.87
2022-08-26T17:54:58.151Z,3.50
2022-08-26T17:57:25.247Z,3.80
2022-08-26T17:59:52.762Z,2.80
2022-08-26T18:02:21.104Z,3.13
2022-08-26T18:04:48.142Z,3.73
2022-08-26T18:07:15.698Z,3.27
2022-08-26T18:09:42.433Z,3.33
2022-08-26T18:12:10.199Z,3.70
2022-08-26T18:14:36.905Z,3.20
2022-08-26T18:17:03.684Z,3.70
2022-08-26T18:19:31.340Z,4.10
2022-08-26T18:21:58.300Z,3.87
2022-08-26T18:24:24.799Z,4.00
2022-08-26T18:26:51.232Z,3.83
2022-08-26T18:29:19.531Z,3.97
2022-08-26T18:31:46.658Z,4.00
2022-08-26T18:34:15.358Z,4.43
2022-08-26T18:36:42.998Z,3.77
2022-08-26T18:39:10.985Z,4.30
2022-08-26T18:41:46.646Z,3.77
2022-08-26T18:44:14.872Z,3.80
2022-08-26T18:46:41.935Z,3.87
2022-08-26T18:49:09.637Z,4.10
2022-08-26T18:51:37.812Z,3.77
2022-08-26T18:54:06.214Z,3.57
2022-08-26T18:56:35.440Z,3.47
2022-08-26T18:59:03.037Z,3.73
2022-08-26T19:01:30.743Z,3.77
2022-08-26T19:03:59.390Z,3.27
2022-08-26T19:06:27.251Z,4.20
2022-08-26T19:08:53.970Z,3.37
2022-08-26T19:11:31.475Z,3.93
2022-08-26T19:13:59.897Z,3.27
2022-08-26T19:16:27.011Z,3.30
2022-08-26T19:18:54.798Z,3.60
2022-08-26T19:21:22.813Z,3.10
2022-08-26T19:23:50.143Z,3.10
2022-08-26T19:26:17.240Z,4.17
2022-08-26T19:28:43.703Z,3.43
2022-08-26T19:31:11.715Z,3.67
2022-08-26T19:33:43.070Z,3.37
2022-08-26T19:36:15.609Z,3.80
2022-08-26T19:38:42.874Z,3.30
2022-08-26T19:41:18.152Z,3.53
2022-08-26T19:43:46.240Z,3.03
2022-08-26T19:46:19.484Z,3.20
2022-08-26T19:48:47.179Z,3.17
2022-08-26T19:51:19.330Z,3.70
2022-08-26T19:53:47.734Z,3.27
2022-08-26T19:56:14.851Z,3.30
2022-08-26T19:58:41.888Z,4.57
2022-08-26T20:01:09.023Z,5.70
2022-08-26T20:03:36.037Z,3.70
2022-08-26T20:06:05.127Z,3.20
2022-08-26T20:08:32.507Z,4.73
2022-08-26T20:11:08.971Z,3.53
2022-08-26T20:13:36.358Z,3.83
2022-08-26T20:16:03.073Z,3.00
2022-08-26T20:18:48.010Z,3.30
2022-08-26T20:21:27.342Z,3.40
2022-08-26T20:23:59.304Z,2.50
2022-08-26T20:26:31.601Z,2.50
2022-08-26T20:28:58.795Z,2.53
2022-08-26T20:31:26.507Z,2.07
2022-08-26T20:33:53.567Z,2.13
2022-08-26T20:36:22.113Z,2.53
2022-08-26T20:38:49.623Z,2.77
2022-08-26T20:41:16.924Z,1.90
2022-08-26T20:43:43.898Z,2.77
2022-08-26T20:46:17.279Z,2.57
2022-08-26T20:48:46.789Z,2.43
2022-08-26T20:51:13.271Z,2.77
2022-08-26T20:53:39.868Z,2.57
2022-08-26T20:56:08.587Z,2.83
2022-08-26T20:58:35.715Z,3.10
2022-08-26T21:01:07.310Z,2.83
2022-08-26T21:03:34.793Z,2.70
2022-08-26T21:06:03.108Z,3.00
2022-08-26T21:08:29.590Z,2.60
2022-08-26T21:10:56.043Z,2.77
2022-08-26T21:13:22.711Z,2.73
2022-08-26T21:15:49.182Z,2.20
2022-08-26T21:18:15.629Z,2.80
2022-08-26T21:20:42.107Z,2.47
2022-08-26T21:23:08.522Z,2.50
2022-08-26T21:25:34.950Z,2.30
2022-08-26T21:28:01.361Z,3.67
2022-08-26T21:30:28.068Z,3.27
2022-08-26T21:32:54.486Z,3.50
2022-08-26T21:35:21.207Z,3.40
2022-08-26T21:37:47.674Z,5.03
2022-08-26T21:40:14.221Z,5.57
2022-08-26T21:42:40.693Z,4.93
2022-08-26T21:45:07.825Z,5.53
2022-08-26T21:47:34.333Z,4.77
2022-08-26T21:50:00.802Z,5.10
2022-08-26T21:52:27.401Z,3.30
2022-08-26T21:55:01.491Z,4.80
2022-08-26T21:57:28.799Z,3.13
2022-08-26T21:59:55.691Z,4.10
2022-08-26T22:02:22.588Z,4.80
2022-08-26T22:04:49.429Z,4.07
2022-08-26T22:07:17.917Z,3.30
2022-08-26T22:09:44.797Z,3.80
2022-08-26T22:12:12.332Z,3.50
2022-08-26T22:14:39.683Z,3.20
2022-08-26T22:17:06.518Z,3.03
2022-08-26T22:19:34.104Z,3.47
2022-08-26T22:22:12.989Z,2.90
2022-08-26T22:24:39.939Z,3.27
2022-08-26T22:27:06.390Z,3.10
2022-08-26T22:29:33.201Z,3.30
2022-08-26T22:31:59.987Z,2.87
2022-08-26T22:34:26.517Z,3.00
2022-08-26T22:36:52.976Z,2.90
2022-08-26T22:39:22.393Z,2.70
2022-08-26T22:41:49.577Z,2.90
2022-08-26T22:44:17.108Z,2.83
2022-08-26T22:46:45.102Z,3.37
2022-08-26T22:49:16.268Z,2.60
2022-08-26T22:51:46.085Z,3.23
2022-08-26T22:54:13.850Z,3.30
2022-08-26T22:56:40.788Z,3.40
2022-08-26T22:59:08.087Z,3.13
2022-08-26T23:01:36.810Z,3.07
2022-08-26T23:04:04.626Z,3.33
2022-08-26T23:06:31.225Z,3.03
2022-08-26T23:08:57.696Z,2.80
2022-08-26T23:11:24.196Z,2.40
2022-08-26T23:13:50.654Z,2.97
2022-08-26T23:16:17.144Z,3.03
2022-08-26T23:18:43.598Z,3.00
2022-08-26T23:21:10.658Z,3.20
2022-08-26T23:23:38.280Z,3.43
2022-08-26T23:26:06.957Z,3.00
2022-08-26T23:28:34.880Z,4.47
2022-08-26T23:31:01.774Z,4.40
2022-08-26T23:33:48.223Z,5.87
2022-08-26T23:36:17.843Z,7.90
2022-08-26T23:38:45.018Z,9.57
2022-08-26T23:41:19.091Z,9.43
2022-08-26T23:43:45.566Z,9.30
2022-08-26T23:46:12.096Z,10.90
2022-08-26T23:48:38.601Z,12.20
2022-08-26T23:51:23.997Z,11.90
2022-08-26T23:53:50.744Z,14.80
2022-08-26T23:56:18.275Z,15.00
2022-08-26T23:58:45.159Z,16.73
